Time;durP1;ratioP1;P1;durP2;ratioP2;P2;SDS_P1;SDS_P2;PMS_P1;PMS_P2;Temp;Humidity;BMP_temperature;BMP_pressure;BME280_temperature;BME280_humidity;BME280_pressure;Samples;Min_cycle;Max_cycle;Signal;HPM_P1;HPM_P2
2023/10/25 00:01:20;;;;;;;9.85;3.92;;;;;;;8.71;100.00;100144.06;5026068;28;20021;-66
2023/10/25 00:03:45;;;;;;;9.10;4.18;;;;;;;8.75;100.00;100144.53;5021968;28;20055;-66
2023/10/25 00:06:10;;;;;;;9.65;4.05;;;;;;;8.73;100.00;100139.41;5021915;28;20559;-66
2023/10/25 00:08:36;;;;;;;7.03;3.83;;;;;;;8.71;100.00;100138.78;5018435;28;20029;-66
2023/10/25 00:11:06;;;;;;;11.20;4.18;;;;;;;8.71;100.00;100138.78;5024415;28;20029;-67
2023/10/25 00:13:32;;;;;;;9.32;4.00;;;;;;;8.61;100.00;100125.75;5014977;28;20037;-67
2023/10/25 00:15:58;;;;;;;8.48;3.90;;;;;;;8.62;100.00;100129.22;5020920;28;20377;-66
2023/10/25 00:18:24;;;;;;;7.97;4.07;;;;;;;8.59;100.00;100122.47;5019267;28;20530;-67
2023/10/25 00:20:50;;;;;;;10.10;4.20;;;;;;;8.58;100.00;100122.63;5020586;28;20032;-66
2023/10/25 00:23:16;;;;;;;9.63;3.97;;;;;;;8.58;100.00;100122.63;5021469;28;20206;-66
2023/10/25 00:25:41;;;;;;;14.18;4.10;;;;;;;8.57;100.00;100103.28;5018560;28;20022;-67
2023/10/25 00:28:06;;;;;;;10.95;4.13;;;;;;;8.56;100.00;100109.56;5016583;28;20033;-66
2023/10/25 00:30:32;;;;;;;15.45;4.60;;;;;;;8.56;100.00;100114.88;5016018;28;20030;-66
2023/10/25 00:32:57;;;;;;;10.10;4.20;;;;;;;8.57;100.00;100116.53;5024507;28;20387;-66
2023/10/25 00:35:22;;;;;;;9.80;4.20;;;;;;;8.57;100.00;100111.22;5027905;28;20052;-66
2023/10/25 00:37:47;;;;;;;9.15;3.95;;;;;;;8.55;100.00;100120.34;5022945;28;20029;-67
2023/10/25 00:40:13;;;;;;;13.15;4.63;;;;;;;8.52;100.00;100129.47;5027734;28;20029;-66
2023/10/25 00:42:38;;;;;;;9.45;4.32;;;;;;;8.51;100.00;100121.69;5020631;28;20101;-66
2023/10/25 00:45:03;;;;;;;12.27;4.28;;;;;;;8.49;100.00;100116.56;5021564;28;20021;-66
2023/10/25 00:47:29;;;;;;;11.32;4.45;;;;;;;8.49;100.00;100126.34;5019662;28;20025;-66
2023/10/25 00:49:54;;;;;;;9.90;5.53;;;;;;;8.49;100.00;100128.97;5027599;28;20033;-67
2023/10/25 00:52:20;;;;;;;13.10;5.47;;;;;;;8.48;100.00;100122.88;5019239;28;20037;-67
2023/10/25 00:54:46;;;;;;;13.23;5.53;;;;;;;8.49;100.00;100123.69;5016559;28;20021;-66
2023/10/25 00:57:13;;;;;;;11.02;5.45;;;;;;;8.49;100.00;100123.69;5021776;28;20025;-66
2023/10/25 00:59:39;;;;;;;13.77;6.10;;;;;;;8.47;100.00;100121.22;5019059;28;20030;-66
2023/10/25 01:02:05;;;;;;;15.27;5.97;;;;;;;8.47;100.00;100112.47;5011662;28;20036;-66
2023/10/25 01:04:30;;;;;;;17.85;5.85;;;;;;;8.48;100.00;100109.63;5020289;28;20021;-66
2023/10/25 01:06:56;;;;;;;14.60;6.32;;;;;;;8.49;100.00;100108.63;5015435;28;20037;-66
2023/10/25 01:09:21;;;;;;;16.83;6.57;;;;;;;8.50;100.00;100105.00;5020762;28;20030;-66
2023/10/25 01:11:46;;;;;;;19.33;6.78;;;;;;;8.52;100.00;100107.47;5021784;28;20446;-67
2023/10/25 01:14:12;;;;;;;14.70;6.05;;;;;;;8.52;100.00;100102.16;5026664;28;20033;-66
2023/10/25 01:16:37;;;;;;;12.98;6.47;;;;;;;8.52;100.00;100102.16;5023027;28;20026;-67
2023/10/25 01:19:02;;;;;;;12.27;6.20;;;;;;;8.50;100.00;100093.59;5022835;28;20076;-67
2023/10/25 01:21:28;;;;;;;12.27;6.07;;;;;;;8.51;100.00;100093.41;5019453;28;20382;-67
2023/10/25 01:23:53;;;;;;;14.73;6.20;;;;;;;8.50;100.00;100091.75;5021158;28;20032;-66
2023/10/25 01:26:19;;;;;;;13.38;5.50;;;;;;;8.50;100.00;100090.94;5023607;28;20095;-66
2023/10/25 01:28:44;;;;;;;12.38;6.10;;;;;;;8.52;100.00;100087.13;5020020;28;20048;-67
2023/10/25 01:31:09;;;;;;;15.10;6.30;;;;;;;8.50;100.00;100081.19;5030842;28;20037;-66
2023/10/25 01:33:34;;;;;;;13.63;5.93;;;;;;;8.49;100.00;100078.72;5025566;28;20753;-66
2023/10/25 01:36:00;;;;;;;13.77;5.88;;;;;;;8.48;100.00;100069.94;5021864;28;20029;-66
2023/10/25 01:38:25;;;;;;;14.85;5.63;;;;;;;8.52;100.00;100075.72;5021497;28;20526;-66
2023/10/25 01:40:50;;;;;;;13.10;5.38;;;;;;;8.53;100.00;100072.88;5018897;28;20053;-66
2023/10/25 01:43:16;;;;;;;14.13;5.70;;;;;;;8.54;100.00;100069.25;5023037;28;20021;-66
2023/10/25 01:45:41;;;;;;;12.85;5.55;;;;;;;8.56;100.00;100069.88;5026211;28;20034;-66
2023/10/25 01:48:06;;;;;;;14.18;5.28;;;;;;;8.61;100.00;100064.88;5025875;28;20083;-66
2023/10/25 01:50:31;;;;;;;8.77;4.85;;;;;;;8.60;100.00;100063.22;5026904;28;20734;-66
2023/10/25 01:52:57;;;;;;;14.73;5.15;;;;;;;8.64;100.00;100059.22;5022510;28;20534;-67
2023/10/25 01:55:22;;;;;;;9.75;4.70;;;;;;;8.66;100.00;100067.00;5023748;28;20029;-66
2023/10/25 01:57:47;;;;;;;14.60;5.07;;;;;;;8.66;100.00;100054.56;5021366;28;20103;-66
2023/10/25 02:00:13;;;;;;;13.18;4.40;;;;;;;8.67;100.00;100050.09;5026191;28;20029;-66
2023/10/25 02:02:39;;;;;;;9.13;4.20;;;;;;;8.65;100.00;100045.00;5021882;28;20590;-66
2023/10/25 02:05:04;;;;;;;9.68;4.40;;;;;;;8.66;100.00;100043.16;5016854;28;20018;-66
2023/10/25 02:07:29;;;;;;;10.35;4.45;;;;;;;8.67;100.00;100036.88;5032935;28;20069;-67
2023/10/25 02:09:55;;;;;;;8.52;4.07;;;;;;;8.67;100.00;100031.56;5031821;28;20037;-66
2023/10/25 02:12:20;;;;;;;12.60;4.28;;;;;;;8.67;100.00;100031.56;5025001;28;20406;-66
2023/10/25 02:14:45;;;;;;;11.13;4.35;;;;;;;8.67;100.00;100027.13;5023597;28;20026;-66
2023/10/25 02:17:11;;;;;;;7.32;4.18;;;;;;;8.66;100.00;100025.47;5030306;28;20510;-66
2023/10/25 02:19:36;;;;;;;7.53;4.32;;;;;;;8.67;100.00;100021.00;5025889;28;20029;-66
2023/10/25 02:22:02;;;;;;;13.23;4.50;;;;;;;8.66;100.00;100020.16;5031410;28;20029;-66
2023/10/25 02:24:27;;;;;;;10.43;4.47;;;;;;;8.66;100.00;100022.81;5026981;28;20022;-67
2023/10/25 02:26:53;;;;;;;10.02;4.65;;;;;;;8.65;100.00;100023.81;5017571;28;20034;-67
2023/10/25 02:29:18;;;;;;;9.98;4.40;;;;;;;8.66;100.00;100011.41;5021183;28;20022;-66
2023/10/25 02:31:43;;;;;;;9.05;4.03;;;;;;;8.66;100.00;100016.69;5032158;28;20032;-66
2023/10/25 02:34:09;;;;;;;12.73;4.18;;;;;;;8.70;100.00;100015.38;5014903;28;20518;-67
2023/10/25 02:36:35;;;;;;;8.20;3.90;;;;;;;8.71;100.00;100017.00;5020159;28;20109;-67
2023/10/25 02:39:01;;;;;;;12.35;3.85;;;;;;;8.64;100.00;100001.00;5029636;28;20033;-66
2023/10/25 02:41:26;;;;;;;11.95;3.55;;;;;;;8.72;100.00;100005.44;5030601;28;20181;-67
2023/10/25 02:43:53;;;;;;;15.25;3.47;;;;;;;8.69;100.00;99997.84;5028886;28;20104;-66
2023/10/25 02:46:19;;;;;;;10.20;3.40;;;;;;;8.72;100.00;99997.47;5033409;28;20102;-67
2023/10/25 02:48:44;;;;;;;9.73;3.75;;;;;;;8.72;100.00;100000.13;5029831;28;20021;-66
2023/10/25 02:51:09;;;;;;;7.93;3.08;;;;;;;8.72;100.00;99986.91;5027010;28;20037;-66
2023/10/25 02:53:35;;;;;;;11.88;3.60;;;;;;;8.68;100.00;99978.50;5031200;28;20025;-66
2023/10/25 02:56:03;;;;;;;7.75;3.08;;;;;;;8.73;100.00;99983.25;5031214;28;20041;-66
2023/10/25 02:58:29;;;;;;;8.45;3.65;;;;;;;8.69;100.00;99972.19;5013596;28;20071;-67
2023/10/25 03:00:56;;;;;;;10.88;3.40;;;;;;;8.69;100.00;99981.97;5017101;28;20041;-66
2023/10/25 03:03:31;;;;;;;9.55;3.47;;;;;;;8.69;100.00;99979.31;5020598;28;20462;-66
2023/10/25 03:05:57;;;;;;;11.65;3.50;;;;;;;8.68;100.00;99975.03;5018072;28;20033;-67
2023/10/25 03:08:23;;;;;;;7.57;3.05;;;;;;;8.67;100.00;99973.34;5024525;28;20491;-66
2023/10/25 03:10:48;;;;;;;11.70;3.55;;;;;;;8.64;100.00;99966.59;5024307;28;20028;-67
2023/10/25 03:13:14;;;;;;;9.80;3.30;;;;;;;8.63;100.00;99970.25;5030345;28;20121;-67
2023/10/25 03:15:39;;;;;;;11.13;3.50;;;;;;;8.64;100.00;99965.78;5027091;28;20107;-67
2023/10/25 03:18:05;;;;;;;8.63;3.28;;;;;;;8.64;100.00;99966.59;5026620;28;20014;-67
2023/10/25 03:20:31;;;;;;;7.00;3.20;;;;;;;8.64;100.00;99960.47;5025378;28;20094;-67
2023/10/25 03:22:57;;;;;;;10.65;3.40;;;;;;;8.62;100.00;99955.38;5029378;28;20108;-67
2023/10/25 03:25:22;;;;;;;6.18;3.22;;;;;;;8.60;100.00;99954.72;5022610;28;20456;-66
2023/10/25 03:27:47;;;;;;;7.78;3.08;;;;;;;8.60;100.00;99953.91;5024817;28;20031;-66
2023/10/25 03:30:12;;;;;;;7.68;3.30;;;;;;;8.59;100.00;99946.97;5016666;28;20032;-67
2023/10/25 03:32:38;;;;;;;8.48;3.45;;;;;;;8.57;100.00;99947.16;5016851;28;20048;-67
2023/10/25 03:35:04;;;;;;;9.68;3.20;;;;;;;8.57;100.00;99941.03;5029934;28;20104;-66
2023/10/25 03:37:30;;;;;;;9.40;2.97;;;;;;;8.50;100.00;99940.94;5018518;28;20438;-66
2023/10/25 03:39:55;;;;;;;9.55;3.50;;;;;;;8.56;100.00;99945.50;5032667;28;20470;-66
2023/10/25 03:42:21;;;;;;;8.75;3.30;;;;;;;8.53;100.00;99939.75;5024573;28;20299;-66
2023/10/25 03:44:46;;;;;;;8.20;3.10;;;;;;;8.50;100.00;99933.00;5013279;28;20052;-66
2023/10/25 03:47:11;;;;;;;9.25;3.40;;;;;;;8.53;100.00;99935.28;5017848;28;20028;-66
2023/10/25 03:49:36;;;;;;;8.50;3.47;;;;;;;8.54;100.00;99938.75;5024637;28;20033;-66
2023/10/25 03:52:02;;;;;;;10.75;3.30;;;;;;;8.55;100.00;99929.81;5033067;28;20068;-68
2023/10/25 03:54:28;;;;;;;7.63;3.08;;;;;;;8.55;100.00;99916.56;5028266;28;20030;-66
2023/10/25 03:56:53;;;;;;;8.23;3.20;;;;;;;8.55;100.00;99922.69;5023686;28;20044;-66
2023/10/25 03:59:18;;;;;;;6.43;3.65;;;;;;;8.55;100.00;99917.41;5028731;28;20384;-66
2023/10/25 04:01:43;;;;;;;7.55;3.30;;;;;;;8.57;100.00;99914.56;5025405;28;20021;-67
2023/10/25 04:04:11;;;;;;;7.10;3.22;;;;;;;8.57;100.00;99919.88;5028379;28;20029;-67
2023/10/25 04:06:37;;;;;;;8.05;3.33;;;;;;;8.56;100.00;99919.03;5024404;28;20641;-67
2023/10/25 04:09:02;;;;;;;8.30;3.70;;;;;;;8.56;100.00;99921.69;5022264;28;20027;-66
2023/10/25 04:11:27;;;;;;;9.45;3.70;;;;;;;8.57;100.00;99919.88;5030870;28;20025;-66
2023/10/25 04:13:53;;;;;;;7.93;3.70;;;;;;;8.54;100.00;99913.13;5024168;28;20017;-66
2023/10/25 04:16:18;;;;;;;10.65;3.53;;;;;;;8.58;100.00;99910.91;5025638;28;20023;-66
2023/10/25 04:18:43;;;;;;;5.90;3.25;;;;;;;8.58;100.00;99911.75;5034487;28;20029;-66
2023/10/25 04:21:10;;;;;;;8.32;3.70;;;;;;;8.58;100.00;99909.09;5022327;28;20025;-66
2023/10/25 04:23:36;;;;;;;9.95;3.75;;;;;;;8.59;100.00;99913.38;5024773;28;20022;-66
2023/10/25 04:26:09;;;;;;;11.90;3.75;;;;;;;8.60;100.00;99912.38;5019368;28;20482;-67
2023/10/25 04:28:37;;;;;;;10.20;4.03;;;;;;;8.58;100.00;99902.97;5029523;28;20029;-66
2023/10/25 04:31:02;;;;;;;11.40;4.13;;;;;;;8.58;100.00;99906.44;5023383;28;20104;-66
2023/10/25 04:33:28;;;;;;;12.15;4.05;;;;;;;8.60;100.00;99907.09;5022818;28;20467;-67
2023/10/25 04:35:53;;;;;;;10.23;4.28;;;;;;;8.62;100.00;99920.13;5032653;28;20147;-66
2023/10/25 04:38:18;;;;;;;13.05;3.90;;;;;;;8.62;100.00;99918.31;5028553;28;20101;-66
2023/10/25 04:40:44;;;;;;;11.38;4.15;;;;;;;8.63;100.00;99908.56;5027066;28;20033;-67
2023/10/25 04:43:09;;;;;;;13.57;4.25;;;;;;;8.64;100.00;99912.84;5026577;28;20033;-67
2023/10/25 04:45:35;;;;;;;14.65;4.60;;;;;;;8.64;100.00;99905.72;5022425;28;20413;-66
2023/10/25 04:48:00;;;;;;;10.85;4.50;;;;;;;8.65;100.00;99903.91;5024939;28;20026;-66
2023/10/25 04:50:25;;;;;;;15.63;4.57;;;;;;;8.64;100.00;99905.72;5024350;28;20113;-67
2023/10/25 04:52:51;;;;;;;12.23;4.80;;;;;;;8.66;100.00;99895.78;5021293;28;20061;-66
2023/10/25 04:55:16;;;;;;;15.05;4.53;;;;;;;8.67;100.00;99886.88;5017831;28;20030;-66
2023/10/25 04:57:41;;;;;;;12.27;4.60;;;;;;;8.66;100.00;99887.00;5014374;28;20091;-66
2023/10/25 05:00:09;;;;;;;13.55;4.50;;;;;;;8.66;100.00;99887.84;5024225;28;20065;-66
2023/10/25 05:02:35;;;;;;;10.95;4.45;;;;;;;8.66;100.00;99881.72;5021119;28;20036;-66
2023/10/25 05:05:01;;;;;;;12.90;4.85;;;;;;;8.66;100.00;99876.44;5025648;28;20116;-66
2023/10/25 05:07:26;;;;;;;15.57;5.18;;;;;;;8.66;100.00;99877.25;5021595;28;20148;-66
2023/10/25 05:09:52;;;;;;;12.45;4.95;;;;;;;8.66;100.00;99863.19;5028259;28;20509;-66
2023/10/25 05:12:24;;;;;;;11.00;4.22;;;;;;;8.66;100.00;99865.84;5030743;28;20037;-66
2023/10/25 05:14:49;;;;;;;18.38;4.85;;;;;;;8.69;100.00;99861.03;5026961;28;20036;-66
2023/10/25 05:17:15;;;;;;;10.57;4.35;;;;;;;8.66;100.00;99847.31;5031289;28;20026;-67
2023/10/25 05:19:41;;;;;;;12.13;4.82;;;;;;;8.68;100.00;99854.09;5027470;28;20049;-66
2023/10/25 05:22:11;;;;;;;13.13;4.80;;;;;;;8.70;100.00;99840.69;5030987;28;20040;-66
2023/10/25 05:24:37;;;;;;;11.77;4.97;;;;;;;8.66;100.00;99839.38;5018307;28;20108;-66
2023/10/25 05:27:03;;;;;;;10.95;4.82;;;;;;;8.69;100.00;99833.75;5025066;28;20166;-66
2023/10/25 05:29:28;;;;;;;12.13;6.05;;;;;;;8.72;100.00;99833.38;5024982;28;20115;-66
2023/10/25 05:31:55;;;;;;;12.60;4.40;;;;;;;8.74;100.00;99828.72;5021866;28;20048;-66
2023/10/25 05:34:21;;;;;;;11.25;4.80;;;;;;;8.69;100.00;99831.91;5023062;28;20029;-66
2023/10/25 05:36:47;;;;;;;11.05;4.50;;;;;;;8.68;100.00;99822.34;5028591;28;20030;-66
2023/10/25 05:39:12;;;;;;;11.75;4.90;;;;;;;8.74;100.00;99826.06;5026841;28;20060;-66
2023/10/25 05:41:40;;;;;;;9.38;4.47;;;;;;;8.73;100.00;99826.25;5033742;28;20025;-66
2023/10/25 05:44:15;;;;;;;13.02;4.93;;;;;;;8.74;100.00;99817.31;5027891;28;20104;-66
2023/10/25 05:46:41;;;;;;;7.97;4.50;;;;;;;8.75;100.00;99821.59;5020819;28;20026;-66
2023/10/25 05:49:07;;;;;;;11.10;4.68;;;;;;;8.76;100.00;99812.66;5034045;28;20693;-68
2023/10/25 05:51:32;;;;;;;9.18;4.32;;;;;;;8.75;100.00;99827.72;5037519;28;20057;-65
2023/10/25 05:53:59;;;;;;;7.88;4.05;;;;;;;8.73;100.00;99808.53;5018458;28;20084;-65
2023/10/25 05:56:26;;;;;;;8.05;4.32;;;;;;;8.78;100.00;99815.94;5012707;28;20022;-66
2023/10/25 05:58:53;;;;;;;10.27;4.18;;;;;;;8.79;100.00;99806.97;5032179;28;20033;-65
2023/10/25 06:01:24;;;;;;;7.95;4.22;;;;;;;8.79;100.00;99805.16;5027160;28;20033;-65
2023/10/25 06:03:51;;;;;;;8.48;4.25;;;;;;;8.81;100.00;99802.31;5020960;28;20092;-65
2023/10/25 06:06:19;;;;;;;11.13;4.45;;;;;;;8.82;100.00;99793.38;5028213;28;20434;-65
2023/10/25 06:08:45;;;;;;;12.38;4.25;;;;;;;8.83;100.00;99797.66;5020045;28;20021;-65
2023/10/25 06:11:10;;;;;;;11.00;4.25;;;;;;;8.84;100.00;99792.19;5023076;28;20026;-66
2023/10/25 06:13:36;;;;;;;11.40;4.38;;;;;;;8.85;100.00;99796.47;5033902;28;20025;-65
2023/10/25 06:16:01;;;;;;;10.35;4.30;;;;;;;8.85;100.00;99791.19;5026441;28;20025;-65
2023/10/25 06:18:27;;;;;;;11.05;4.68;;;;;;;8.87;100.00;99791.81;5038063;28;20040;-65
2023/10/25 06:20:52;;;;;;;13.88;4.10;;;;;;;8.88;100.00;99795.28;5026832;28;20026;-65
2023/10/25 06:23:17;;;;;;;10.48;4.18;;;;;;;8.90;100.00;99790.63;5029422;28;20689;-65
2023/10/25 06:25:42;;;;;;;7.60;4.78;;;;;;;8.90;100.00;99786.13;5016263;28;20032;-65
2023/10/25 06:28:08;;;;;;;10.27;3.92;;;;;;;8.92;100.00;99793.91;5015138;28;20018;-65
2023/10/25 06:30:33;;;;;;;9.13;3.85;;;;;;;8.93;100.00;99793.72;5027140;28;20424;-65
2023/10/25 06:32:59;;;;;;;8.82;3.80;;;;;;;8.94;100.00;99792.69;5018744;28;20033;-65
2023/10/25 06:35:24;;;;;;;8.10;3.88;;;;;;;8.94;100.00;99779.47;5009867;28;20099;-65
2023/10/25 06:37:50;;;;;;;6.75;3.65;;;;;;;8.96;100.00;99779.28;5017602;28;20164;-65
2023/10/25 06:40:16;;;;;;;9.52;3.88;;;;;;;8.96;100.00;99782.78;5019248;28;20406;-65
2023/10/25 06:42:41;;;;;;;7.57;4.07;;;;;;;8.97;100.00;99779.13;5027349;28;20091;-65
2023/10/25 06:45:08;;;;;;;8.43;4.15;;;;;;;8.99;100.00;99768.34;5023556;28;20026;-65
2023/10/25 06:47:33;;;;;;;11.68;3.90;;;;;;;8.99;100.00;99761.22;5023365;28;20041;-65
2023/10/25 06:49:59;;;;;;;9.50;4.28;;;;;;;9.00;100.00;99756.75;5020507;28;20033;-65
2023/10/25 06:52:25;;;;;;;8.15;3.58;;;;;;;9.01;100.00;99750.44;5016121;28;20207;-65
2023/10/25 06:54:50;;;;;;;8.43;3.67;;;;;;;9.03;100.00;99750.25;5022291;28;20026;-66
2023/10/25 06:57:16;;;;;;;8.73;3.33;;;;;;;9.04;100.00;99739.47;5017165;28;20018;-65
2023/10/25 06:59:41;;;;;;;10.30;3.63;;;;;;;9.04;100.00;99738.66;5015441;28;20399;-65
2023/10/25 07:02:26;;;;;;;8.63;3.80;;;;;;;8.98;100.00;99730.44;5017910;28;20121;-65
2023/10/25 07:04:58;;;;;;;7.72;3.85;;;;;;;9.05;100.00;99735.81;5035240;28;20021;-65
2023/10/25 07:07:29;;;;;;;7.55;3.60;;;;;;;9.10;100.00;99735.25;5028827;28;20108;-65
2023/10/25 07:09:55;;;;;;;6.85;3.42;;;;;;;9.09;100.00;99723.00;5025353;28;20036;-65
2023/10/25 07:12:20;;;;;;;10.20;3.22;;;;;;;9.13;100.00;99726.91;5029061;28;20037;-65
2023/10/25 07:14:46;;;;;;;7.53;3.20;;;;;;;9.14;100.00;99726.72;5023994;28;20033;-65
2023/10/25 07:17:11;;;;;;;11.48;3.10;;;;;;;9.16;100.00;99719.41;5019105;28;20124;-66
2023/10/25 07:19:36;;;;;;;9.50;3.50;;;;;;;9.19;100.00;99721.69;5026305;28;20496;-65
2023/10/25 07:22:02;;;;;;;8.77;3.20;;;;;;;9.19;100.00;99715.56;5027413;28;20049;-65
2023/10/25 07:24:27;;;;;;;8.48;3.53;;;;;;;9.24;100.00;99713.97;5033289;28;20091;-65
2023/10/25 07:26:53;;;;;;;9.00;3.00;;;;;;;9.26;100.00;99705.88;5015897;28;20037;-66
2023/10/25 07:29:19;;;;;;;6.15;3.03;;;;;;;9.28;100.00;99698.56;5010273;28;20148;-65
2023/10/25 07:31:44;;;;;;;9.68;3.38;;;;;;;9.31;100.00;99696.34;5019854;28;20659;-65
2023/10/25 07:34:09;;;;;;;8.95;2.97;;;;;;;9.36;100.00;99697.59;5026985;28;20044;-65
2023/10/25 07:36:35;;;;;;;7.07;3.22;;;;;;;9.37;100.00;99692.09;5019688;28;20029;-65
2023/10/25 07:39:00;;;;;;;8.27;3.03;;;;;;;9.40;100.00;99698.84;5021840;28;20021;-65
2023/10/25 07:41:25;;;;;;;7.38;2.95;;;;;;;9.41;100.00;99693.34;5016247;28;20032;-65
2023/10/25 07:43:50;;;;;;;9.63;3.08;;;;;;;9.40;100.00;99694.38;5023913;28;20021;-66
2023/10/25 07:46:16;;;;;;;8.50;3.15;;;;;;;9.41;100.00;99708.44;5018236;28;20028;-65
2023/10/25 07:48:41;;;;;;;7.43;3.17;;;;;;;9.44;100.00;99700.09;5026254;28;20072;-65
2023/10/25 07:51:06;;;;;;;6.25;2.80;;;;;;;9.43;100.00;99691.31;5025201;28;20021;-65
2023/10/25 07:53:31;;;;;;;5.85;2.83;;;;;;;9.46;100.00;99684.81;5017388;28;20064;-65
2023/10/25 07:56:01;;;;;;;7.97;3.20;;;;;;;9.47;100.00;99689.94;5016089;28;20044;-65
2023/10/25 07:58:27;;;;;;;9.77;3.13;;;;;;;9.49;100.00;99676.50;5008852;28;20022;-65
2023/10/25 08:00:53;;;;;;;9.50;3.15;;;;;;;9.50;100.00;99678.94;5022755;28;20029;-67
2023/10/25 08:03:18;;;;;;;9.05;2.90;;;;;;;9.49;100.00;99672.00;5014526;28;20060;-66
2023/10/25 08:05:43;;;;;;;8.52;3.00;;;;;;;9.51;100.00;99662.03;5023736;28;20079;-66
2023/10/25 08:08:09;;;;;;;8.27;3.17;;;;;;;9.51;100.00;99656.72;5021330;28;20041;-66
2023/10/25 08:10:34;;;;;;;7.65;3.10;;;;;;;9.53;100.00;99662.66;5028262;28;20506;-66
2023/10/25 08:12:59;;;;;;;8.55;3.20;;;;;;;9.53;100.00;99656.53;5027224;28;20076;-66
2023/10/25 08:15:25;;;;;;;8.38;3.38;;;;;;;9.53;100.00;99646.75;5028268;28;20402;-66
2023/10/25 08:17:52;;;;;;;7.88;3.15;;;;;;;9.54;100.00;99643.13;5026780;28;20083;-66
2023/10/25 08:20:18;;;;;;;9.30;3.13;;;;;;;9.54;100.00;99631.66;5025503;28;20095;-65
2023/10/25 08:22:43;;;;;;;13.23;4.15;;;;;;;9.55;100.00;99633.34;5024763;28;20519;-66
2023/10/25 08:25:09;;;;;;;9.23;3.22;;;;;;;9.53;100.00;99620.25;5026139;28;20026;-65
2023/10/25 08:27:34;;;;;;;9.73;3.50;;;;;;;9.56;100.00;99622.53;5015241;28;20442;-66
2023/10/25 08:29:59;;;;;;;10.05;3.55;;;;;;;9.56;100.00;99627.84;5030712;28;20084;-66
2023/10/25 08:32:26;;;;;;;8.63;3.38;;;;;;;9.53;100.00;99614.13;5021877;28;20088;-65
2023/10/25 08:34:51;;;;;;;6.15;3.20;;;;;;;9.60;100.00;99615.03;5034499;28;20035;-66
2023/10/25 08:37:16;;;;;;;8.48;3.40;;;;;;;9.62;100.00;99611.16;5020198;28;20026;-66
2023/10/25 08:39:43;;;;;;;12.27;3.13;;;;;;;9.63;100.00;99615.44;5011607;28;20467;-65
2023/10/25 08:42:11;;;;;;;6.95;3.70;;;;;;;9.65;100.00;99611.78;5013517;28;20045;-65
2023/10/25 08:44:40;;;;;;;8.02;3.28;;;;;;;9.67;100.00;99609.75;5028542;28;20032;-66
2023/10/25 08:47:06;;;;;;;4.70;3.00;;;;;;;9.69;100.00;99599.78;5030381;28;20080;-66
2023/10/25 08:49:31;;;;;;;8.82;3.40;;;;;;;9.70;100.00;99604.06;5024906;28;20515;-66
2023/10/25 08:51:57;;;;;;;6.22;3.05;;;;;;;9.68;100.00;99596.31;5019076;28;20400;-66
2023/10/25 08:54:24;;;;;;;6.32;3.35;;;;;;;9.70;100.00;99591.63;5027920;28;20064;-65
2023/10/25 08:56:49;;;;;;;6.65;3.28;;;;;;;9.71;100.00;99595.09;5024218;28;20036;-65
2023/10/25 08:59:16;;;;;;;10.25;3.35;;;;;;;9.70;100.00;99582.84;5025076;28;20025;-65
2023/10/25 09:01:41;;;;;;;8.30;3.88;;;;;;;9.68;100.00;99587.53;5035318;28;20018;-66
2023/10/25 09:04:08;;;;;;;7.57;3.65;;;;;;;9.67;100.00;99584.06;5015676;28;20060;-65
2023/10/25 09:06:33;;;;;;;6.50;3.50;;;;;;;9.63;100.00;99581.00;5031339;28;20053;-65
2023/10/25 09:09:02;;;;;;;7.72;3.70;;;;;;;9.66;100.00;99579.78;5023947;28;20049;-66
2023/10/25 09:11:38;;;;;;;7.72;4.13;;;;;;;9.68;100.00;99576.94;5039599;28;20399;-65
2023/10/25 09:14:04;;;;;;;8.00;4.30;;;;;;;9.65;100.00;99574.66;5021285;28;20085;-65
2023/10/25 09:16:31;;;;;;;10.38;4.80;;;;;;;9.67;100.00;99575.28;5029601;28;20021;-66
2023/10/25 09:19:01;;;;;;;9.45;4.68;;;;;;;9.67;100.00;99573.47;5020686;28;20031;-66
2023/10/25 09:21:29;;;;;;;;;;;;;;;9.72;100.00;99571.03;5014463;28;20450;-66
2023/10/25 09:23:56;;;;;;;10.68;4.90;;;;;;;9.69;100.00;99563.47;5024006;28;19917;-66
2023/10/25 09:26:22;;;;;;;6.68;4.80;;;;;;;9.45;100.00;99516.25;5018069;28;20037;-66
2023/10/25 09:28:52;;;;;;;12.30;7.43;;;;;;;9.66;100.00;99549.81;5019159;28;20022;-66
2023/10/25 09:31:28;;;;;;;11.40;7.53;;;;;;;9.67;100.00;99548.78;5019856;28;20100;-67
2023/10/25 09:33:53;;;;;;;10.00;6.78;;;;;;;9.65;100.00;99538.38;5023963;28;20032;-66
2023/10/25 09:36:22;;;;;;;10.30;6.47;;;;;;;9.65;100.00;99532.25;5016656;28;20034;-66
2023/10/25 09:38:51;;;;;;;8.77;6.07;;;;;;;9.65;100.00;99541.03;5015181;28;20501;-66
2023/10/25 09:41:17;;;;;;;11.30;5.55;;;;;;;9.65;100.00;99540.22;5015348;28;20504;-66
2023/10/25 09:43:48;;;;;;;9.82;5.50;;;;;;;9.64;100.00;99544.69;5025365;28;20060;-66
2023/10/25 09:46:20;;;;;;;8.77;5.18;;;;;;;9.63;100.00;99546.53;5019630;28;20108;-66
2023/10/25 09:48:55;;;;;;;7.35;5.32;;;;;;;9.62;100.00;99538.78;5023327;28;20415;-67
2023/10/25 09:51:46;;;;;;;13.40;7.95;;;;;;;9.62;100.00;99536.94;5016571;28;20109;-66
2023/10/25 09:54:13;;;;;;;14.02;8.60;;;;;;;9.58;100.00;99516.34;5017071;28;20550;-67
2023/10/25 09:56:39;;;;;;;14.63;10.50;;;;;;;9.61;100.00;99515.94;5022473;28;20509;-66
2023/10/25 09:59:07;;;;;;;14.90;11.60;;;;;;;9.55;100.00;99496.34;5009261;28;20052;-66
2023/10/25 10:01:33;;;;;;;15.25;10.55;;;;;;;9.57;100.00;99496.16;5029628;28;20111;-66
2023/10/25 10:04:14;;;;;;;14.85;9.10;;;;;;;9.57;100.00;99496.16;5017697;28;20057;-66
2023/10/25 10:06:58;;;;;;;13.48;7.10;;;;;;;9.55;100.00;99492.88;5012375;28;20848;-66
2023/10/25 10:09:30;;;;;;;10.90;6.60;;;;;;;9.53;100.00;99486.94;5015171;28;20108;-67
2023/10/25 10:12:06;;;;;;;10.15;6.75;;;;;;;9.51;100.00;99484.47;5022665;28;20025;-67
2023/10/25 10:14:39;;;;;;;9.60;6.28;;;;;;;9.51;100.00;99486.31;5029375;28;20026;-67
2023/10/25 10:17:14;;;;;;;9.95;6.68;;;;;;;9.50;100.00;99477.53;5014488;28;20530;-67
2023/10/25 10:19:48;;;;;;;9.73;7.15;;;;;;;9.50;100.00;99474.06;5011593;28;20029;-67
2023/10/25 10:22:16;;;;;;;13.38;7.63;;;;;;;9.49;100.00;99475.91;5023808;28;20389;-67
2023/10/25 10:24:43;;;;;;;13.65;7.60;;;;;;;9.50;100.00;99471.41;4984587;28;1044362;-67
2023/10/25 10:27:10;;;;;;;10.85;7.40;;;;;;;9.48;100.00;99461.03;5022488;28;20049;-67
2023/10/25 10:29:35;;;;;;;14.43;9.73;;;;;;;9.48;100.00;99449.59;5018770;28;20021;-67
2023/10/25 10:32:02;;;;;;;14.45;10.55;;;;;;;9.45;100.00;99440.22;5016244;28;20411;-67
2023/10/25 10:34:36;;;;;;;18.00;10.00;;;;;;;9.47;100.00;99442.66;5017994;28;20033;-67
2023/10/25 10:37:10;;;;;;;17.02;11.27;;;;;;;9.42;100.00;99431.84;5027366;28;20113;-67
2023/10/25 10:39:38;;;;;;;15.05;10.30;;;;;;;9.42;100.00;99421.25;5012616;28;20029;-67
2023/10/25 10:42:03;;;;;;;14.75;8.80;;;;;;;9.47;100.00;99424.13;5011798;28;20029;-67
2023/10/25 10:44:33;;;;;;;13.52;8.88;;;;;;;9.46;100.00;99415.34;5019025;28;20018;-67
2023/10/25 10:47:00;;;;;;;15.07;10.02;;;;;;;9.48;100.00;99413.31;5018376;28;20412;-67
2023/10/25 10:49:30;;;;;;;16.58;8.77;;;;;;;9.48;100.00;99405.38;5019050;28;20030;-67
2023/10/25 10:51:56;;;;;;;14.85;10.02;;;;;;;9.51;100.00;99398.84;5024358;28;20191;-67
2023/10/25 10:54:21;;;;;;;12.80;10.05;;;;;;;9.47;100.00;99393.13;5013916;28;20118;-68
2023/10/25 10:56:46;;;;;;;15.85;9.95;;;;;;;9.50;100.00;99392.75;5019172;28;20036;-67
2023/10/25 10:59:12;;;;;;;26.95;15.27;;;;;;;9.53;100.00;99384.38;5012449;28;20515;-67
2023/10/25 11:01:37;;;;;;;20.88;12.82;;;;;;;9.54;100.00;99379.91;5021547;28;20033;-68
2023/10/25 11:04:03;;;;;;;13.02;7.78;;;;;;;9.54;100.00;99380.75;5020277;28;20043;-67
2023/10/25 11:06:28;;;;;;;12.35;8.00;;;;;;;9.56;100.00;99368.13;5020043;28;20560;-67
2023/10/25 11:08:53;;;;;;;15.45;7.85;;;;;;;9.57;100.00;99364.44;5013984;28;20029;-67
2023/10/25 11:11:20;;;;;;;14.20;10.00;;;;;;;9.56;100.00;99365.47;5012454;28;20025;-67
2023/10/25 11:13:49;;;;;;;14.38;10.20;;;;;;;9.58;100.00;99357.31;5016331;28;20029;-68
2023/10/25 11:16:14;;;;;;;19.67;13.10;;;;;;;9.51;100.00;99341.38;5011725;28;20553;-67
2023/10/25 11:18:39;;;;;;;20.02;13.40;;;;;;;9.61;100.00;99346.31;5024550;28;20017;-68
2023/10/25 11:21:05;;;;;;;20.02;12.57;;;;;;;9.61;100.00;99344.47;5021844;28;20025;-67
2023/10/25 11:23:30;;;;;;;17.15;10.57;;;;;;;9.62;100.00;99342.63;5028665;28;20025;-67